sensor_id;sensor_type;location;lat;lon;timestamp;temperature;humidity
46706;DHT22;33519;50.712;7.124;2023-04-01T00:01:37;11.20;99.90
46706;DHT22;33519;50.712;7.124;2023-04-01T00:04:03;11.20;99.90
46706;DHT22;33519;50.712;7.124;2023-04-01T00:06:30;11.20;99.90
46706;DHT22;33519;50.712;7.124;2023-04-01T00:08:56;11.20;99.90
46706;DHT22;33519;50.712;7.124;2023-04-01T00:11:23;11.10;99.90
46706;DHT22;33519;50.712;7.124;2023-04-01T00:13:50;11.10;99.90
46706;DHT22;33519;50.712;7.124;2023-04-01T00:16:16;11.10;99.90
46706;DHT22;33519;50.712;7.124;2023-04-01T00:18:48;11.10;99.90
46706;DHT22;33519;50.712;7.124;2023-04-01T00:21:15;11.00;99.90
46706;DHT22;33519;50.712;7.124;2023-04-01T00:23:42;11.00;99.90
46706;DHT22;33519;50.712;7.124;2023-04-01T00:26:09;11.10;99.90
46706;DHT22;33519;50.712;7.124;2023-04-01T00:31:07;11.00;99.90
46706;DHT22;33519;50.712;7.124;2023-04-01T00:33:34;11.00;99.90
46706;DHT22;33519;50.712;7.124;2023-04-01T00:36:06;11.00;99.90
46706;DHT22;33519;50.712;7.124;2023-04-01T00:38:33;11.00;99.90
46706;DHT22;33519;50.712;7.124;2023-04-01T00:40:59;11.00;99.90
46706;DHT22;33519;50.712;7.124;2023-04-01T00:43:26;11.00;99.90
46706;DHT22;33519;50.712;7.124;2023-04-01T00:45:53;11.00;99.90
46706;DHT22;33519;50.712;7.124;2023-04-01T00:48:21;11.00;99.90
46706;DHT22;33519;50.712;7.124;2023-04-01T00:50:52;11.00;99.90
46706;DHT22;33519;50.712;7.124;2023-04-01T00:53:19;11.00;99.90
46706;DHT22;33519;50.712;7.124;2023-04-01T00:55:51;11.00;99.90
46706;DHT22;33519;50.712;7.124;2023-04-01T00:58:20;11.00;99.90
46706;DHT22;33519;50.712;7.124;2023-04-01T01:00:47;11.00;99.90
46706;DHT22;33519;50.712;7.124;2023-04-01T01:03:15;11.10;99.90
46706;DHT22;33519;50.712;7.124;2023-04-01T01:08:24;11.00;99.90
46706;DHT22;33519;50.712;7.124;2023-04-01T01:10:56;11.00;99.90
46706;DHT22;33519;50.712;7.124;2023-04-01T01:13:29;11.00;99.90
46706;DHT22;33519;50.712;7.124;2023-04-01T01:15:57;11.00;99.90
46706;DHT22;33519;50.712;7.124;2023-04-01T01:23:52;10.90;99.90
46706;DHT22;33519;50.712;7.124;2023-04-01T01:31:47;10.90;99.90
46706;DHT22;33519;50.712;7.124;2023-04-01T01:36:57;10.80;99.90
46706;DHT22;33519;50.712;7.124;2023-04-01T01:39:28;10.80;99.90
46706;DHT22;33519;50.712;7.124;2023-04-01T01:41:57;10.70;99.90
46706;DHT22;33519;50.712;7.124;2023-04-01T01:44:25;10.70;99.90
46706;DHT22;33519;50.712;7.124;2023-04-01T01:46:52;10.70;99.90
46706;DHT22;33519;50.712;7.124;2023-04-01T01:49:19;10.70;99.90
46706;DHT22;33519;50.712;7.124;2023-04-01T01:51:46;10.70;99.90
46706;DHT22;33519;50.712;7.124;2023-04-01T01:54:15;10.70;99.90
46706;DHT22;33519;50.712;7.124;2023-04-01T01:56:42;10.70;99.90
46706;DHT22;33519;50.712;7.124;2023-04-01T01:59:13;10.70;99.90
46706;DHT22;33519;50.712;7.124;2023-04-01T02:01:41;10.70;99.90
46706;DHT22;33519;50.712;7.124;2023-04-01T02:04:09;10.80;99.90
46706;DHT22;33519;50.712;7.124;2023-04-01T02:06:47;10.80;99.90
46706;DHT22;33519;50.712;7.124;2023-04-01T02:09:18;10.80;99.90
46706;DHT22;33519;50.712;7.124;2023-04-01T02:11:52;10.90;99.90
46706;DHT22;33519;50.712;7.124;2023-04-01T02:14:20;10.80;99.90
46706;DHT22;33519;50.712;7.124;2023-04-01T02:16:51;10.80;99.90
46706;DHT22;33519;50.712;7.124;2023-04-01T02:19:20;10.90;99.90
46706;DHT22;33519;50.712;7.124;2023-04-01T02:21:53;10.90;99.90
46706;DHT22;33519;50.712;7.124;2023-04-01T02:24:23;10.90;99.90
46706;DHT22;33519;50.712;7.124;2023-04-01T02:26:51;10.90;99.90
46706;DHT22;33519;50.712;7.124;2023-04-01T02:29:19;10.80;99.90
46706;DHT22;33519;50.712;7.124;2023-04-01T02:31:46;10.80;99.90
46706;DHT22;33519;50.712;7.124;2023-04-01T02:34:14;10.70;99.90
46706;DHT22;33519;50.712;7.124;2023-04-01T02:36:40;10.60;99.90
46706;DHT22;33519;50.712;7.124;2023-04-01T02:39:07;10.50;99.90
46706;DHT22;33519;50.712;7.124;2023-04-01T02:41:41;10.40;99.90
46706;DHT22;33519;50.712;7.124;2023-04-01T02:44:08;10.40;99.90
46706;DHT22;33519;50.712;7.124;2023-04-01T02:46:36;10.30;99.90
46706;DHT22;33519;50.712;7.124;2023-04-01T02:49:02;10.30;99.90
46706;DHT22;33519;50.712;7.124;2023-04-01T02:51:29;10.30;99.90
46706;DHT22;33519;50.712;7.124;2023-04-01T02:53:58;10.30;99.90
46706;DHT22;33519;50.712;7.124;2023-04-01T02:56:24;10.30;99.90
46706;DHT22;33519;50.712;7.124;2023-04-01T02:58:52;10.30;99.90
46706;DHT22;33519;50.712;7.124;2023-04-01T03:01:19;10.30;99.90
46706;DHT22;33519;50.712;7.124;2023-04-01T03:03:46;10.30;99.90
46706;DHT22;33519;50.712;7.124;2023-04-01T03:06:14;10.20;99.90
46706;DHT22;33519;50.712;7.124;2023-04-01T03:08:41;10.10;99.90
46706;DHT22;33519;50.712;7.124;2023-04-01T03:11:08;10.10;99.90
46706;DHT22;33519;50.712;7.124;2023-04-01T03:13:35;10.00;99.90
46706;DHT22;33519;50.712;7.124;2023-04-01T03:16:02;9.90;99.90
46706;DHT22;33519;50.712;7.124;2023-04-01T03:18:29;9.90;99.90
46706;DHT22;33519;50.712;7.124;2023-04-01T03:20:56;9.80;99.90
46706;DHT22;33519;50.712;7.124;2023-04-01T03:23:23;9.80;99.90
46706;DHT22;33519;50.712;7.124;2023-04-01T03:25:51;9.70;99.90
46706;DHT22;33519;50.712;7.124;2023-04-01T03:28:18;9.60;99.90
46706;DHT22;33519;50.712;7.124;2023-04-01T03:30:48;9.70;99.90
46706;DHT22;33519;50.712;7.124;2023-04-01T03:33:20;9.70;99.90
46706;DHT22;33519;50.712;7.124;2023-04-01T03:35:50;9.80;99.90
46706;DHT22;33519;50.712;7.124;2023-04-01T03:38:18;9.80;99.90
46706;DHT22;33519;50.712;7.124;2023-04-01T03:40:45;9.90;99.90
46706;DHT22;33519;50.712;7.124;2023-04-01T03:43:12;9.90;99.90
46706;DHT22;33519;50.712;7.124;2023-04-01T03:45:48;9.90;99.90
46706;DHT22;33519;50.712;7.124;2023-04-01T03:48:15;9.90;99.90
46706;DHT22;33519;50.712;7.124;2023-04-01T03:50:42;9.90;99.90
46706;DHT22;33519;50.712;7.124;2023-04-01T03:53:09;9.90;99.90
46706;DHT22;33519;50.712;7.124;2023-04-01T03:55:39;10.00;99.90
46706;DHT22;33519;50.712;7.124;2023-04-01T03:58:08;10.10;99.90
46706;DHT22;33519;50.712;7.124;2023-04-01T04:00:34;10.20;99.90
46706;DHT22;33519;50.712;7.124;2023-04-01T04:03:02;10.20;99.90
46706;DHT22;33519;50.712;7.124;2023-04-01T04:05:29;10.40;99.90
46706;DHT22;33519;50.712;7.124;2023-04-01T04:07:58;10.40;99.90
46706;DHT22;33519;50.712;7.124;2023-04-01T04:10:25;10.40;99.90
46706;DHT22;33519;50.712;7.124;2023-04-01T04:12:55;10.30;99.90
46706;DHT22;33519;50.712;7.124;2023-04-01T04:15:24;10.40;99.90
46706;DHT22;33519;50.712;7.124;2023-04-01T04:17:53;10.40;99.90
46706;DHT22;33519;50.712;7.124;2023-04-01T04:20:20;10.40;99.90
46706;DHT22;33519;50.712;7.124;2023-04-01T04:22:46;10.50;99.90
46706;DHT22;33519;50.712;7.124;2023-04-01T04:25:13;10.50;99.90
46706;DHT22;33519;50.712;7.124;2023-04-01T04:27:39;10.50;99.90
46706;DHT22;33519;50.712;7.124;2023-04-01T04:30:06;10.40;99.90
46706;DHT22;33519;50.712;7.124;2023-04-01T04:32:33;10.50;99.90
46706;DHT22;33519;50.712;7.124;2023-04-01T04:34:59;10.50;99.90
46706;DHT22;33519;50.712;7.124;2023-04-01T04:37:26;10.40;99.90
46706;DHT22;33519;50.712;7.124;2023-04-01T04:39:53;10.40;99.90
46706;DHT22;33519;50.712;7.124;2023-04-01T04:42:19;10.50;99.90
46706;DHT22;33519;50.712;7.124;2023-04-01T04:44:46;10.40;99.90
46706;DHT22;33519;50.712;7.124;2023-04-01T04:47:13;10.50;99.90
46706;DHT22;33519;50.712;7.124;2023-04-01T04:49:39;10.40;99.90
46706;DHT22;33519;50.712;7.124;2023-04-01T04:52:06;10.40;99.90
46706;DHT22;33519;50.712;7.124;2023-04-01T04:54:32;10.40;99.90
46706;DHT22;33519;50.712;7.124;2023-04-01T04:56:59;10.30;99.90
46706;DHT22;33519;50.712;7.124;2023-04-01T04:59:26;10.10;99.90
46706;DHT22;33519;50.712;7.124;2023-04-01T05:01:52;10.00;99.90
46706;DHT22;33519;50.712;7.124;2023-04-01T05:04:19;9.80;99.90
46706;DHT22;33519;50.712;7.124;2023-04-01T05:06:45;9.70;99.90
46706;DHT22;33519;50.712;7.124;2023-04-01T05:09:12;9.60;99.90
46706;DHT22;33519;50.712;7.124;2023-04-01T05:11:39;9.60;99.90
46706;DHT22;33519;50.712;7.124;2023-04-01T05:14:11;9.60;99.90
46706;DHT22;33519;50.712;7.124;2023-04-01T05:16:37;9.60;99.90
46706;DHT22;33519;50.712;7.124;2023-04-01T05:19:04;9.50;99.90
46706;DHT22;33519;50.712;7.124;2023-04-01T05:21:31;9.60;99.90
46706;DHT22;33519;50.712;7.124;2023-04-01T05:23:57;9.60;99.90
46706;DHT22;33519;50.712;7.124;2023-04-01T05:26:24;9.50;99.90
46706;DHT22;33519;50.712;7.124;2023-04-01T05:28:50;9.40;99.90
46706;DHT22;33519;50.712;7.124;2023-04-01T05:31:17;9.40;99.90
46706;DHT22;33519;50.712;7.124;2023-04-01T05:33:43;9.40;99.90
46706;DHT22;33519;50.712;7.124;2023-04-01T05:36:11;9.40;99.90
46706;DHT22;33519;50.712;7.124;2023-04-01T05:38:38;9.40;99.90
46706;DHT22;33519;50.712;7.124;2023-04-01T05:41:05;9.40;99.90
46706;DHT22;33519;50.712;7.124;2023-04-01T05:43:32;9.40;99.90
46706;DHT22;33519;50.712;7.124;2023-04-01T05:45:58;9.30;99.90
46706;DHT22;33519;50.712;7.124;2023-04-01T05:48:25;9.40;99.90
46706;DHT22;33519;50.712;7.124;2023-04-01T05:50:51;9.40;99.90
46706;DHT22;33519;50.712;7.124;2023-04-01T05:53:18;9.40;99.90
46706;DHT22;33519;50.712;7.124;2023-04-01T05:55:44;9.40;99.90
46706;DHT22;33519;50.712;7.124;2023-04-01T05:58:11;9.40;99.90
46706;DHT22;33519;50.712;7.124;2023-04-01T06:00:38;9.50;99.90
46706;DHT22;33519;50.712;7.124;2023-04-01T06:03:04;9.60;99.90
46706;DHT22;33519;50.712;7.124;2023-04-01T06:05:36;9.60;99.90
46706;DHT22;33519;50.712;7.124;2023-04-01T06:08:14;9.60;99.90
46706;DHT22;33519;50.712;7.124;2023-04-01T06:16:03;9.90;99.90
46706;DHT22;33519;50.712;7.124;2023-04-01T06:34:26;9.80;99.90
46706;DHT22;33519;50.712;7.124;2023-04-01T06:37:01;9.80;99.90
46706;DHT22;33519;50.712;7.124;2023-04-01T06:45:07;9.90;99.90
46706;DHT22;33519;50.712;7.124;2023-04-01T06:50:26;10.00;99.90
46706;DHT22;33519;50.712;7.124;2023-04-01T06:55:27;10.10;99.90
46706;DHT22;33519;50.712;7.124;2023-04-01T06:57:55;10.00;99.90
46706;DHT22;33519;50.712;7.124;2023-04-01T07:02:54;10.00;99.90
46706;DHT22;33519;50.712;7.124;2023-04-01T07:05:24;9.90;99.90
46706;DHT22;33519;50.712;7.124;2023-04-01T07:07:57;9.90;99.90
46706;DHT22;33519;50.712;7.124;2023-04-01T07:10:30;9.80;99.90
46706;DHT22;33519;50.712;7.124;2023-04-01T07:12:58;9.80;99.90
46706;DHT22;33519;50.712;7.124;2023-04-01T07:15:34;9.70;99.90
46706;DHT22;33519;50.712;7.124;2023-04-01T07:18:03;9.80;99.90
46706;DHT22;33519;50.712;7.124;2023-04-01T07:20:32;9.90;99.90
46706;DHT22;33519;50.712;7.124;2023-04-01T07:23:00;10.10;99.90
46706;DHT22;33519;50.712;7.124;2023-04-01T07:25:29;10.20;99.90
46706;DHT22;33519;50.712;7.124;2023-04-01T07:28:02;10.20;99.90
46706;DHT22;33519;50.712;7.124;2023-04-01T07:33:10;10.30;99.90
46706;DHT22;33519;50.712;7.124;2023-04-01T07:36:03;10.30;99.90
46706;DHT22;33519;50.712;7.124;2023-04-01T07:38:32;10.40;99.90
46706;DHT22;33519;50.712;7.124;2023-04-01T07:44:16;10.50;99.90
46706;DHT22;33519;50.712;7.124;2023-04-01T07:47:49;10.50;99.90
46706;DHT22;33519;50.712;7.124;2023-04-01T07:57:22;10.40;99.90
46706;DHT22;33519;50.712;7.124;2023-04-01T07:59:55;10.40;99.90
46706;DHT22;33519;50.712;7.124;2023-04-01T08:05:19;10.30;99.90
46706;DHT22;33519;50.712;7.124;2023-04-01T08:10:44;10.40;99.90
46706;DHT22;33519;50.712;7.124;2023-04-01T08:15:45;10.40;99.90
46706;DHT22;33519;50.712;7.124;2023-04-01T08:18:35;10.50;99.90
46706;DHT22;33519;50.712;7.124;2023-04-01T08:21:06;10.50;99.90
46706;DHT22;33519;50.712;7.124;2023-04-01T08:23:36;10.50;99.90
46706;DHT22;33519;50.712;7.124;2023-04-01T08:26:18;10.60;99.90
46706;DHT22;33519;50.712;7.124;2023-04-01T08:28:51;10.70;99.90
46706;DHT22;33519;50.712;7.124;2023-04-01T08:34:10;10.70;99.90
46706;DHT22;33519;50.712;7.124;2023-04-01T08:36:41;10.80;99.90
46706;DHT22;33519;50.712;7.124;2023-04-01T08:39:10;10.70;99.90
46706;DHT22;33519;50.712;7.124;2023-04-01T08:44:34;10.70;99.90
46706;DHT22;33519;50.712;7.124;2023-04-01T08:47:48;10.70;99.90
46706;DHT22;33519;50.712;7.124;2023-04-01T08:50:06;10.80;99.90
46706;DHT22;33519;50.712;7.124;2023-04-01T08:52:44;10.80;99.90
46706;DHT22;33519;50.712;7.124;2023-04-01T08:57:45;10.80;99.90
46706;DHT22;33519;50.712;7.124;2023-04-01T09:00:24;10.80;99.90
46706;DHT22;33519;50.712;7.124;2023-04-01T09:02:55;10.80;99.90
46706;DHT22;33519;50.712;7.124;2023-04-01T09:05:35;10.60;99.90
46706;DHT22;33519;50.712;7.124;2023-04-01T09:08:06;10.60;99.90
46706;DHT22;33519;50.712;7.124;2023-04-01T09:10:44;10.60;99.90
46706;DHT22;33519;50.712;7.124;2023-04-01T09:21:04;10.50;99.90
46706;DHT22;33519;50.712;7.124;2023-04-01T09:26:54;10.50;99.90
46706;DHT22;33519;50.712;7.124;2023-04-01T09:29:33;10.40;99.90
46706;DHT22;33519;50.712;7.124;2023-04-01T09:32:18;10.40;99.90
46706;DHT22;33519;50.712;7.124;2023-04-01T09:37:35;10.40;99.90
46706;DHT22;33519;50.712;7.124;2023-04-01T09:45:09;10.30;99.90
46706;DHT22;33519;50.712;7.124;2023-04-01T09:47:51;10.50;99.90
46706;DHT22;33519;50.712;7.124;2023-04-01T09:50:27;10.60;99.90
46706;DHT22;33519;50.712;7.124;2023-04-01T09:53:03;10.60;99.90
46706;DHT22;33519;50.712;7.124;2023-04-01T09:55:42;10.70;99.90
46706;DHT22;33519;50.712;7.124;2023-04-01T09:58:16;10.80;99.90
46706;DHT22;33519;50.712;7.124;2023-04-01T10:06:10;11.10;99.90
46706;DHT22;33519;50.712;7.124;2023-04-01T10:11:50;11.30;99.90
46706;DHT22;33519;50.712;7.124;2023-04-01T10:14:24;11.30;99.90
46706;DHT22;33519;50.712;7.124;2023-04-01T10:19:34;11.30;99.90
46706;DHT22;33519;50.712;7.124;2023-04-01T10:22:13;11.40;99.90
46706;DHT22;33519;50.712;7.124;2023-04-01T10:27:21;11.30;99.90
46706;DHT22;33519;50.712;7.124;2023-04-01T10:35:38;11.20;99.90
46706;DHT22;33519;50.712;7.124;2023-04-01T10:38:26;11.30;99.90
46706;DHT22;33519;50.712;7.124;2023-04-01T10:41:11;11.60;99.90
46706;DHT22;33519;50.712;7.124;2023-04-01T10:43:52;11.90;99.90
46706;DHT22;33519;50.712;7.124;2023-04-01T10:54:16;11.80;99.90
46706;DHT22;33519;50.712;7.124;2023-04-01T10:56:55;11.70;99.90
46706;DHT22;33519;50.712;7.124;2023-04-01T11:04:53;11.50;99.90
46706;DHT22;33519;50.712;7.124;2023-04-01T11:10:15;11.40;99.90
46706;DHT22;33519;50.712;7.124;2023-04-01T11:12:51;11.50;99.90
46706;DHT22;33519;50.712;7.124;2023-04-01T11:22:58;11.40;99.90
46706;DHT22;33519;50.712;7.124;2023-04-01T11:28:18;11.70;99.90
46706;DHT22;33519;50.712;7.124;2023-04-01T11:30:52;11.70;99.90
46706;DHT22;33519;50.712;7.124;2023-04-01T11:35:55;11.50;99.90
46706;DHT22;33519;50.712;7.124;2023-04-01T11:41:07;11.40;99.90
46706;DHT22;33519;50.712;7.124;2023-04-01T11:43:51;11.40;99.90
46706;DHT22;33519;50.712;7.124;2023-04-01T11:59:50;11.20;99.90
46706;DHT22;33519;50.712;7.124;2023-04-01T12:02:25;11.20;99.90
46706;DHT22;33519;50.712;7.124;2023-04-01T12:10:26;11.00;99.90
46706;DHT22;33519;50.712;7.124;2023-04-01T12:25:54;11.40;99.90
46706;DHT22;33519;50.712;7.124;2023-04-01T12:31:07;11.50;99.90
46706;DHT22;33519;50.712;7.124;2023-04-01T12:36:51;11.60;99.90
46706;DHT22;33519;50.712;7.124;2023-04-01T12:53:02;11.60;99.90
46706;DHT22;33519;50.712;7.124;2023-04-01T12:55:36;11.60;99.90
46706;DHT22;33519;50.712;7.124;2023-04-01T13:03:48;11.30;99.90
46706;DHT22;33519;50.712;7.124;2023-04-01T13:06:27;11.30;99.90
46706;DHT22;33519;50.712;7.124;2023-04-01T13:11:42;11.10;99.90
46706;DHT22;33519;50.712;7.124;2023-04-01T13:17:29;11.00;99.90
46706;DHT22;33519;50.712;7.124;2023-04-01T13:20:16;11.00;99.90
46706;DHT22;33519;50.712;7.124;2023-04-01T13:25:35;10.90;99.90
46706;DHT22;33519;50.712;7.124;2023-04-01T13:28:47;11.00;99.90
46706;DHT22;33519;50.712;7.124;2023-04-01T13:31:02;11.00;99.90
46706;DHT22;33519;50.712;7.124;2023-04-01T13:33:47;11.00;99.90
46706;DHT22;33519;50.712;7.124;2023-04-01T13:36:37;11.10;99.90
46706;DHT22;33519;50.712;7.124;2023-04-01T13:44:16;11.90;99.90
46706;DHT22;33519;50.712;7.124;2023-04-01T13:49:48;12.40;99.90
46706;DHT22;33519;50.712;7.124;2023-04-01T14:05:41;12.00;99.90
46706;DHT22;33519;50.712;7.124;2023-04-01T14:10:56;12.20;99.90
46706;DHT22;33519;50.712;7.124;2023-04-01T14:16:04;12.80;99.90
46706;DHT22;33519;50.712;7.124;2023-04-01T14:18:37;13.10;99.90
46706;DHT22;33519;50.712;7.124;2023-04-01T14:23:37;13.20;99.90
46706;DHT22;33519;50.712;7.124;2023-04-01T14:44:57;12.90;99.90
46706;DHT22;33519;50.712;7.124;2023-04-01T14:47:46;13.10;99.90
46706;DHT22;33519;50.712;7.124;2023-04-01T14:50:21;13.10;99.90
46706;DHT22;33519;50.712;7.124;2023-04-01T15:00:47;12.20;99.90
46706;DHT22;33519;50.712;7.124;2023-04-01T15:03:20;12.30;99.90
46706;DHT22;33519;50.712;7.124;2023-04-01T15:08:31;12.20;99.90
46706;DHT22;33519;50.712;7.124;2023-04-01T15:11:11;12.20;99.90
46706;DHT22;33519;50.712;7.124;2023-04-01T15:13:45;12.20;99.90
46706;DHT22;33519;50.712;7.124;2023-04-01T15:16:36;12.10;99.90
46706;DHT22;33519;50.712;7.124;2023-04-01T15:27:12;12.00;99.90
46706;DHT22;33519;50.712;7.124;2023-04-01T15:32:31;11.90;99.90
46706;DHT22;33519;50.712;7.124;2023-04-01T15:35:19;11.90;99.90
46706;DHT22;33519;50.712;7.124;2023-04-01T15:37:51;12.00;99.90
46706;DHT22;33519;50.712;7.124;2023-04-01T15:40:23;12.00;99.90
46706;DHT22;33519;50.712;7.124;2023-04-01T15:51:18;11.70;99.90
46706;DHT22;33519;50.712;7.124;2023-04-01T15:58:57;11.30;99.90
46706;DHT22;33519;50.712;7.124;2023-04-01T16:20:02;11.50;99.90
46706;DHT22;33519;50.712;7.124;2023-04-01T16:22:58;11.20;99.90
46706;DHT22;33519;50.712;7.124;2023-04-01T16:25:33;11.20;99.90
46706;DHT22;33519;50.712;7.124;2023-04-01T16:28:23;11.20;99.90
46706;DHT22;33519;50.712;7.124;2023-04-01T16:31:00;11.10;99.90
46706;DHT22;33519;50.712;7.124;2023-04-01T16:41:24;11.10;99.90
46706;DHT22;33519;50.712;7.124;2023-04-01T16:43:58;11.10;99.90
46706;DHT22;33519;50.712;7.124;2023-04-01T16:46:41;11.00;99.90
46706;DHT22;33519;50.712;7.124;2023-04-01T16:54:28;11.00;99.90
46706;DHT22;33519;50.712;7.124;2023-04-01T16:56:56;11.00;99.90
46706;DHT22;33519;50.712;7.124;2023-04-01T16:59:44;11.00;99.90
46706;DHT22;33519;50.712;7.124;2023-04-01T17:02:13;10.90;99.90
46706;DHT22;33519;50.712;7.124;2023-04-01T17:04:47;10.90;99.90
46706;DHT22;33519;50.712;7.124;2023-04-01T17:10:15;10.80;99.90
46706;DHT22;33519;50.712;7.124;2023-04-01T17:18:23;10.80;99.90
46706;DHT22;33519;50.712;7.124;2023-04-01T17:23:36;10.70;99.90
46706;DHT22;33519;50.712;7.124;2023-04-01T17:37:05;10.40;99.90
46706;DHT22;33519;50.712;7.124;2023-04-01T17:39:40;10.40;99.90
46706;DHT22;33519;50.712;7.124;2023-04-01T17:42:16;10.40;99.90
46706;DHT22;33519;50.712;7.124;2023-04-01T17:44:58;10.40;99.90
46706;DHT22;33519;50.712;7.124;2023-04-01T17:47:32;10.40;99.90
46706;DHT22;33519;50.712;7.124;2023-04-01T17:52:42;10.30;99.90
46706;DHT22;33519;50.712;7.124;2023-04-01T17:57:49;10.20;99.90
46706;DHT22;33519;50.712;7.124;2023-04-01T18:00:23;10.20;99.90
46706;DHT22;33519;50.712;7.124;2023-04-01T18:08:17;10.20;99.90
46706;DHT22;33519;50.712;7.124;2023-04-01T18:10:52;10.20;99.90
46706;DHT22;33519;50.712;7.124;2023-04-01T18:21:09;10.10;99.90
46706;DHT22;33519;50.712;7.124;2023-04-01T18:23:46;10.10;99.90
46706;DHT22;33519;50.712;7.124;2023-04-01T18:26:34;10.10;99.90
46706;DHT22;33519;50.712;7.124;2023-04-01T18:31:49;10.00;99.90
46706;DHT22;33519;50.712;7.124;2023-04-01T18:39:54;10.00;99.90
46706;DHT22;33519;50.712;7.124;2023-04-01T18:47:45;10.00;99.90
46706;DHT22;33519;50.712;7.124;2023-04-01T18:52:43;10.00;99.90
46706;DHT22;33519;50.712;7.124;2023-04-01T18:57:42;10.00;99.90
46706;DHT22;33519;50.712;7.124;2023-04-01T19:05:35;10.00;99.90
46706;DHT22;33519;50.712;7.124;2023-04-01T19:10:48;9.90;99.90
46706;DHT22;33519;50.712;7.124;2023-04-01T19:21:28;10.00;99.90
46706;DHT22;33519;50.712;7.124;2023-04-01T19:24:20;9.90;99.90
46706;DHT22;33519;50.712;7.124;2023-04-01T19:26:58;9.90;99.90
46706;DHT22;33519;50.712;7.124;2023-04-01T19:29:39;9.90;99.90
46706;DHT22;33519;50.712;7.124;2023-04-01T19:37:11;9.90;99.90
46706;DHT22;33519;50.712;7.124;2023-04-01T19:40:28;9.90;99.90
46706;DHT22;33519;50.712;7.124;2023-04-01T19:42:44;9.80;99.90
46706;DHT22;33519;50.712;7.124;2023-04-01T19:48:00;9.70;99.90
46706;DHT22;33519;50.712;7.124;2023-04-01T19:50:34;9.70;99.90
46706;DHT22;33519;50.712;7.124;2023-04-01T19:53:28;9.70;99.90
46706;DHT22;33519;50.712;7.124;2023-04-01T19:56:02;9.70;99.90
46706;DHT22;33519;50.712;7.124;2023-04-01T19:58:33;9.70;99.90
46706;DHT22;33519;50.712;7.124;2023-04-01T20:01:01;9.60;99.90
46706;DHT22;33519;50.712;7.124;2023-04-01T20:14:04;9.50;99.90
46706;DHT22;33519;50.712;7.124;2023-04-01T20:16:40;9.50;99.90
46706;DHT22;33519;50.712;7.124;2023-04-01T20:19:10;9.50;99.90
46706;DHT22;33519;50.712;7.124;2023-04-01T20:21:41;9.50;99.90
46706;DHT22;33519;50.712;7.124;2023-04-01T20:26:46;9.40;99.90
46706;DHT22;33519;50.712;7.124;2023-04-01T20:31:57;9.40;99.90
46706;DHT22;33519;50.712;7.124;2023-04-01T20:34:39;9.40;99.90
46706;DHT22;33519;50.712;7.124;2023-04-01T20:37:29;9.40;99.90
46706;DHT22;33519;50.712;7.124;2023-04-01T20:42:57;9.30;99.90
46706;DHT22;33519;50.712;7.124;2023-04-01T20:45:45;9.30;99.90
46706;DHT22;33519;50.712;7.124;2023-04-01T20:50:48;9.20;99.90
46706;DHT22;33519;50.712;7.124;2023-04-01T20:53:28;9.20;99.90
46706;DHT22;33519;50.712;7.124;2023-04-01T20:56:02;9.20;99.90
46706;DHT22;33519;50.712;7.124;2023-04-01T21:06:34;9.30;99.90
46706;DHT22;33519;50.712;7.124;2023-04-01T21:21:46;9.30;99.90
46706;DHT22;33519;50.712;7.124;2023-04-01T21:27:23;9.20;99.90
46706;DHT22;33519;50.712;7.124;2023-04-01T21:30:12;9.20;99.90
46706;DHT22;33519;50.712;7.124;2023-04-01T21:37:57;9.10;99.90
46706;DHT22;33519;50.712;7.124;2023-04-01T21:43:03;9.00;99.90
46706;DHT22;33519;50.712;7.124;2023-04-01T21:51:12;9.00;99.90
46706;DHT22;33519;50.712;7.124;2023-04-01T22:03:55;8.90;99.90
46706;DHT22;33519;50.712;7.124;2023-04-01T22:06:25;8.90;99.90
46706;DHT22;33519;50.712;7.124;2023-04-01T22:09:01;8.90;99.90
46706;DHT22;33519;50.712;7.124;2023-04-01T22:14:16;8.90;99.90
46706;DHT22;33519;50.712;7.124;2023-04-01T22:16:57;8.80;99.90
46706;DHT22;33519;50.712;7.124;2023-04-01T22:24:39;8.80;99.90
46706;DHT22;33519;50.712;7.124;2023-04-01T22:27:11;8.80;99.90
46706;DHT22;33519;50.712;7.124;2023-04-01T22:32:14;8.80;99.90
46706;DHT22;33519;50.712;7.124;2023-04-01T22:34:49;8.80;99.90
46706;DHT22;33519;50.712;7.124;2023-04-01T22:40:08;8.80;99.90
46706;DHT22;33519;50.712;7.124;2023-04-01T22:50:09;8.80;99.90
46706;DHT22;33519;50.712;7.124;2023-04-01T22:52:40;8.80;99.90
46706;DHT22;33519;50.712;7.124;2023-04-01T22:55:19;8.70;99.90
46706;DHT22;33519;50.712;7.124;2023-04-01T22:57:57;8.80;99.90
46706;DHT22;33519;50.712;7.124;2023-04-01T23:00:30;8.80;99.90
46706;DHT22;33519;50.712;7.124;2023-04-01T23:05:31;8.80;99.90
46706;DHT22;33519;50.712;7.124;2023-04-01T23:12:59;8.80;99.90
46706;DHT22;33519;50.712;7.124;2023-04-01T23:15:28;8.70;99.90
46706;DHT22;33519;50.712;7.124;2023-04-01T23:17:59;8.80;99.90
46706;DHT22;33519;50.712;7.124;2023-04-01T23:28:45;8.70;99.90
46706;DHT22;33519;50.712;7.124;2023-04-01T23:31:29;8.70;99.90
46706;DHT22;33519;50.712;7.124;2023-04-01T23:33:57;8.70;99.90
46706;DHT22;33519;50.712;7.124;2023-04-01T23:36:24;8.70;99.90
46706;DHT22;33519;50.712;7.124;2023-04-01T23:38:51;8.70;99.90
46706;DHT22;33519;50.712;7.124;2023-04-01T23:43:50;8.70;99.90
46706;DHT22;33519;50.712;7.124;2023-04-01T23:46:19;8.70;99.90
46706;DHT22;33519;50.712;7.124;2023-04-01T23:48:47;8.70;99.90
46706;DHT22;33519;50.712;7.124;2023-04-01T23:51:58;8.70;99.90
46706;DHT22;33519;50.712;7.124;2023-04-01T23:54:19;8.70;99.90
46706;DHT22;33519;50.712;7.124;2023-04-01T23:56:54;8.80;99.90
46706;DHT22;33519;50.712;7.124;2023-04-01T23:59:29;8.80;99.90
